createdAt,value
2023-02-05T00:02:00.552Z,0.98
2023-02-05T00:04:02.729Z,0.87
2023-02-05T00:06:05.561Z,0.89
2023-02-05T00:08:07.683Z,0.88
2023-02-05T00:10:10.354Z,0.90
2023-02-05T00:12:12.712Z,0.89
2023-02-05T00:14:17.512Z,0.78
2023-02-05T00:16:22.934Z,0.81
2023-02-05T00:18:25.181Z,0.89
2023-02-05T00:20:28.658Z,0.83
2023-02-05T00:22:30.740Z,0.84
2023-02-05T00:24:32.772Z,0.80
2023-02-05T00:26:37.362Z,0.78
2023-02-05T00:28:39.458Z,0.69
2023-02-05T00:30:42.098Z,0.69
2023-02-05T00:32:44.628Z,0.62
2023-02-05T00:34:46.625Z,0.61
2023-02-05T00:36:48.944Z,0.53
2023-02-05T00:38:51.952Z,0.46
2023-02-05T00:40:54.475Z,0.48
2023-02-05T00:42:56.423Z,0.41
2023-02-05T00:44:58.550Z,0.30
2023-02-05T00:47:00.877Z,0.32
2023-02-05T00:49:03.259Z,0.20
2023-02-05T00:51:05.610Z,0.26
2023-02-05T00:53:07.873Z,0.37
2023-02-05T00:55:10.279Z,0.39
2023-02-05T00:57:12.405Z,0.29
2023-02-05T00:59:14.974Z,0.29
2023-02-05T01:01:18.008Z,0.28
2023-02-05T01:03:20.392Z,0.30
2023-02-05T01:05:22.723Z,0.26
2023-02-05T01:07:24.931Z,0.28
2023-02-05T01:09:26.987Z,0.37
2023-02-05T01:11:29.123Z,0.35
2023-02-05T01:13:31.304Z,0.32
2023-02-05T01:15:33.948Z,0.28
2023-02-05T01:17:36.348Z,0.37
2023-02-05T01:19:38.493Z,0.32
2023-02-05T01:21:41.148Z,0.32
2023-02-05T01:23:43.219Z,0.24
2023-02-05T01:25:46.113Z,0.27
2023-02-05T01:27:49.998Z,0.15
2023-02-05T01:29:52.356Z,0.12
2023-02-05T01:31:54.958Z,0.15
2023-02-05T01:33:57.162Z,0.12
2023-02-05T01:35:59.210Z,0.12
2023-02-05T01:38:01.339Z,0.15
2023-02-05T01:40:04.029Z,0.15
2023-02-05T01:42:25.539Z,0.16
2023-02-05T01:44:30.810Z,0.21
2023-02-05T01:46:35.481Z,0.22
2023-02-05T01:48:46.479Z,0.19
2023-02-05T01:50:55.824Z,0.24
2023-02-05T01:53:02.883Z,0.22
2023-02-05T01:55:07.752Z,0.17
2023-02-05T01:57:21.006Z,0.22
2023-02-05T01:59:30.195Z,0.23
2023-02-05T02:01:33.137Z,0.18
2023-02-05T02:03:36.204Z,0.25
2023-02-05T02:05:38.427Z,0.26
2023-02-05T02:07:41.499Z,0.22
2023-02-05T02:09:46.110Z,0.18
2023-02-05T02:11:49.272Z,0.13
2023-02-05T02:13:55.155Z,0.26
2023-02-05T02:15:58.176Z,0.31
2023-02-05T02:18:21.867Z,0.22
2023-02-05T02:20:33.774Z,0.16
2023-02-05T02:22:55.280Z,0.22
2023-02-05T02:25:03.231Z,0.26
2023-02-05T02:27:28.821Z,0.37
2023-02-05T02:29:40.107Z,0.25
2023-02-05T02:31:49.230Z,0.21
2023-02-05T02:34:07.004Z,0.14
2023-02-05T02:36:25.674Z,0.18
2023-02-05T02:38:42.131Z,0.26
2023-02-05T02:41:15.457Z,0.33
2023-02-05T02:43:35.612Z,0.28
2023-02-05T02:45:47.127Z,0.32
2023-02-05T02:47:53.804Z,0.34
2023-02-05T02:50:03.394Z,0.32
2023-02-05T02:52:09.205Z,0.33
2023-02-05T02:54:17.017Z,0.28
2023-02-05T02:56:20.772Z,0.30
2023-02-05T02:58:32.944Z,0.25
2023-02-05T03:00:38.542Z,0.21
2023-02-05T03:02:43.215Z,0.17
2023-02-05T03:04:52.083Z,0.14
2023-02-05T03:07:01.027Z,0.08
2023-02-05T03:09:23.604Z,0.21
2023-02-05T03:11:26.488Z,0.12
2023-02-05T03:13:29.848Z,0.11
2023-02-05T03:15:35.902Z,0.19
2023-02-05T03:17:39.616Z,0.09
2023-02-05T03:19:41.722Z,0.10
2023-02-05T03:21:49.257Z,0.11
2023-02-05T03:23:52.189Z,0.10
2023-02-05T03:25:54.639Z,0.03
2023-02-05T03:28:04.798Z,0.15
2023-02-05T03:30:10.321Z,0.13
2023-02-05T03:32:33.283Z,0.15
2023-02-05T03:34:47.252Z,0.26
2023-02-05T03:37:25.333Z,0.25
2023-02-05T03:39:55.183Z,0.18
2023-02-05T03:42:09.732Z,0.12
2023-02-05T03:44:23.802Z,-0.01
2023-02-05T03:46:37.835Z,0.01
2023-02-05T03:48:55.861Z,0.10
2023-02-05T03:51:23.620Z,0.06
2023-02-05T03:53:33.724Z,0.06
2023-02-05T03:55:46.077Z,0.06
2023-02-05T03:58:06.426Z,0.02
2023-02-05T04:00:10.203Z,0.14
2023-02-05T04:02:22.703Z,0.13
2023-02-05T04:04:25.614Z,0.18
2023-02-05T04:06:27.903Z,0.21
2023-02-05T04:08:30.716Z,0.11
2023-02-05T04:10:32.845Z,0.09
2023-02-05T04:12:37.216Z,0.10
2023-02-05T04:14:40.442Z,0.06
2023-02-05T04:16:42.715Z,0.09
2023-02-05T04:18:45.093Z,0.07
2023-02-05T04:20:47.610Z,0.13
2023-02-05T04:22:52.710Z,0.06
2023-02-05T04:24:55.404Z,0.09
2023-02-05T04:26:57.437Z,0.05
2023-02-05T04:29:00.185Z,0.05
2023-02-05T04:31:07.514Z,-0.02
2023-02-05T04:33:09.903Z,0.04
2023-02-05T04:35:13.142Z,0.05
2023-02-05T04:37:17.461Z,0.04
2023-02-05T04:39:19.541Z,0.09
2023-02-05T04:41:22.266Z,0.06
2023-02-05T04:43:24.454Z,-0.01
2023-02-05T04:45:31.645Z,0.05
2023-02-05T04:47:34.665Z,0.14
2023-02-05T04:49:36.992Z,0.00
2023-02-05T04:51:39.353Z,0.04
2023-02-05T04:53:41.760Z,0.05
2023-02-05T04:55:44.066Z,0.07
2023-02-05T04:57:46.540Z,0.09
2023-02-05T04:59:48.501Z,0.02
2023-02-05T05:01:50.514Z,0.01
2023-02-05T05:03:52.741Z,-0.05
2023-02-05T05:05:54.872Z,-0.08
2023-02-05T05:07:59.019Z,-0.10
2023-02-05T05:10:01.405Z,-0.06
2023-02-05T05:12:06.776Z,-0.14
2023-02-05T05:14:08.923Z,-0.13
2023-02-05T05:16:12.566Z,-0.09
2023-02-05T05:18:17.634Z,-0.13
2023-02-05T05:20:20.028Z,-0.16
2023-02-05T05:22:22.479Z,-0.17
2023-02-05T05:24:27.079Z,-0.14
2023-02-05T05:26:31.334Z,-0.15
2023-02-05T05:28:34.964Z,-0.15
2023-02-05T05:30:41.608Z,-0.27
2023-02-05T05:32:43.879Z,-0.20
2023-02-05T05:34:46.197Z,-0.14
2023-02-05T05:36:48.336Z,-0.18
2023-02-05T05:38:53.482Z,-0.17
2023-02-05T05:41:21.635Z,-0.15
2023-02-05T05:43:42.160Z,-0.18
2023-02-05T05:45:44.395Z,-0.25
2023-02-05T05:47:46.873Z,-0.20
2023-02-05T05:49:50.435Z,-0.25
2023-02-05T05:51:52.509Z,-0.22
2023-02-05T05:53:55.197Z,-0.33
2023-02-05T05:55:57.466Z,-0.41
2023-02-05T05:58:02.528Z,-0.45
2023-02-05T06:00:05.904Z,-0.29
2023-02-05T06:02:14.165Z,-0.29
2023-02-05T06:04:16.605Z,-0.34
2023-02-05T06:06:18.551Z,-0.34
2023-02-05T06:08:20.638Z,-0.28
2023-02-05T06:11:37.116Z,-0.38
2023-02-05T06:13:40.234Z,-0.32
2023-02-05T06:15:42.461Z,-0.37
2023-02-05T06:17:47.627Z,-0.31
2023-02-05T06:19:49.939Z,-0.42
2023-02-05T06:21:52.273Z,-0.33
2023-02-05T06:23:56.704Z,-0.26
2023-02-05T06:25:58.946Z,-0.21
2023-02-05T06:28:06.035Z,-0.14
2023-02-05T06:30:09.077Z,0.02
2023-02-05T06:32:11.117Z,0.17
2023-02-05T06:34:16.319Z,0.36
2023-02-05T06:36:18.660Z,0.40
2023-02-05T06:38:23.836Z,0.47
2023-02-05T06:40:28.213Z,0.58
2023-02-05T06:42:30.492Z,0.71
2023-02-05T06:44:33.584Z,0.84
2023-02-05T06:46:35.638Z,0.93
2023-02-05T06:48:37.865Z,1.00
2023-02-05T06:50:39.934Z,1.10
2023-02-05T06:52:42.013Z,1.18
2023-02-05T06:54:44.935Z,1.26
2023-02-05T06:56:48.116Z,1.27
2023-02-05T06:58:50.676Z,1.30
2023-02-05T07:00:52.817Z,1.36
2023-02-05T07:02:55.453Z,1.60
2023-02-05T07:04:57.824Z,1.69
2023-02-05T07:06:59.936Z,1.65
2023-02-05T07:09:05.230Z,1.52
2023-02-05T07:11:07.625Z,1.67
2023-02-05T07:13:09.736Z,1.70
2023-02-05T07:15:12.235Z,1.84
2023-02-05T07:17:14.103Z,1.77
2023-02-05T07:19:16.396Z,1.92
2023-02-05T07:21:18.451Z,2.09
2023-02-05T07:23:20.937Z,2.04
2023-02-05T07:25:23.346Z,2.06
2023-02-05T07:27:25.659Z,2.09
2023-02-05T07:29:28.573Z,2.17
2023-02-05T07:31:31.140Z,2.14
2023-02-05T07:33:34.200Z,2.27
2023-02-05T07:35:39.497Z,2.33
2023-02-05T07:37:44.364Z,2.53
2023-02-05T07:39:47.002Z,2.57
2023-02-05T07:41:49.256Z,2.73
2023-02-05T07:44:01.012Z,2.58
2023-02-05T07:46:07.513Z,2.54
2023-02-05T07:48:12.708Z,2.66
2023-02-05T07:50:15.093Z,2.76
2023-02-05T07:52:17.538Z,2.85
2023-02-05T07:54:19.706Z,2.77
2023-02-05T07:56:22.234Z,2.80
2023-02-05T07:58:24.504Z,2.73
2023-02-05T08:00:26.769Z,2.84
2023-02-05T08:02:28.771Z,2.81
2023-02-05T08:04:31.008Z,2.80
2023-02-05T08:06:34.253Z,2.77
2023-02-05T08:08:36.395Z,2.78
2023-02-05T08:10:38.495Z,2.89
2023-02-05T08:12:40.736Z,2.82
2023-02-05T08:14:45.512Z,2.93
2023-02-05T08:16:47.958Z,3.05
2023-02-05T08:18:51.305Z,3.14
2023-02-05T08:20:56.524Z,3.15
2023-02-05T08:22:58.686Z,3.15
2023-02-05T08:25:00.644Z,3.13
2023-02-05T08:27:04.504Z,3.19
2023-02-05T08:29:08.355Z,3.28
2023-02-05T08:31:12.963Z,3.27
2023-02-05T08:33:15.175Z,3.35
2023-02-05T08:35:18.418Z,3.46
2023-02-05T08:37:20.482Z,3.42
2023-02-05T08:39:22.734Z,3.40
2023-02-05T08:41:24.863Z,3.47
2023-02-05T08:43:26.776Z,3.48
2023-02-05T08:45:30.672Z,3.55
2023-02-05T08:47:32.885Z,3.48
2023-02-05T08:49:35.203Z,3.47
2023-02-05T08:51:38.171Z,3.60
2023-02-05T08:53:41.155Z,3.71
2023-02-05T08:55:43.252Z,3.65
2023-02-05T08:57:45.562Z,3.41
2023-02-05T08:59:48.723Z,3.31
2023-02-05T09:01:50.851Z,3.37
2023-02-05T09:03:52.926Z,3.29
2023-02-05T09:05:55.096Z,3.32
2023-02-05T09:07:59.226Z,3.37
2023-02-05T09:10:06.508Z,3.52
2023-02-05T09:12:10.982Z,3.64
2023-02-05T09:14:14.045Z,3.61
2023-02-05T09:16:15.824Z,3.65
2023-02-05T09:18:18.409Z,3.58
2023-02-05T09:20:20.482Z,3.57
2023-02-05T09:22:22.650Z,3.60
2023-02-05T09:24:25.254Z,3.61
2023-02-05T09:26:27.365Z,3.54
2023-02-05T09:28:29.455Z,3.39
2023-02-05T09:30:31.971Z,3.33
2023-02-05T09:32:34.321Z,3.45
2023-02-05T09:34:36.404Z,3.45
2023-02-05T09:36:40.526Z,3.19
2023-02-05T09:38:42.953Z,3.13
2023-02-05T09:40:51.669Z,2.80
2023-02-05T09:43:02.913Z,2.94
2023-02-05T09:45:16.910Z,2.96
2023-02-05T09:47:42.583Z,3.00
2023-02-05T09:50:11.554Z,2.94
2023-02-05T09:52:40.464Z,3.07
2023-02-05T09:54:46.851Z,3.28
2023-02-05T09:56:50.741Z,3.27
2023-02-05T09:58:56.174Z,3.21
2023-02-05T10:01:04.096Z,3.13
2023-02-05T10:03:50.158Z,3.05
2023-02-05T10:06:11.013Z,2.95
2023-02-05T10:08:26.930Z,2.94
2023-02-05T10:10:45.924Z,2.99
2023-02-05T10:13:19.683Z,3.00
2023-02-05T10:15:50.044Z,3.10
2023-02-05T10:18:04.885Z,3.18
2023-02-05T10:20:07.453Z,3.27
2023-02-05T10:22:22.248Z,3.28
2023-02-05T10:24:58.933Z,3.31
2023-02-05T10:27:09.968Z,3.35
2023-02-05T10:29:21.340Z,3.49
2023-02-05T10:32:03.474Z,3.49
2023-02-05T10:34:43.757Z,3.39
2023-02-05T10:36:51.128Z,3.35
2023-02-05T10:38:57.998Z,3.29
2023-02-05T10:41:07.834Z,3.18
2023-02-05T10:43:26.034Z,3.24
2023-02-05T10:45:30.050Z,3.20
2023-02-05T10:47:35.013Z,3.19
2023-02-05T10:49:52.190Z,3.22
2023-02-05T10:51:55.151Z,3.12
2023-02-05T10:54:00.688Z,3.12
2023-02-05T10:56:04.945Z,3.10
2023-02-05T10:58:37.550Z,3.15
2023-02-05T11:00:40.638Z,3.11
2023-02-05T11:02:46.343Z,3.11
2023-02-05T11:05:01.686Z,3.05
2023-02-05T11:07:06.528Z,3.07
2023-02-05T11:09:26.883Z,2.98
2023-02-05T11:11:32.226Z,3.00
2023-02-05T11:13:41.980Z,2.99
2023-02-05T11:16:04.060Z,3.04
2023-02-05T11:18:22.178Z,3.04
2023-02-05T11:20:35.615Z,3.04
2023-02-05T11:22:41.705Z,3.03
2023-02-05T11:24:44.085Z,3.00
2023-02-05T11:26:49.576Z,3.07
2023-02-05T11:28:52.663Z,3.05
2023-02-05T11:30:55.761Z,3.00
2023-02-05T11:40:55.005Z,2.90
2023-02-05T11:43:02.381Z,2.90
2023-02-05T11:45:04.712Z,2.97
2023-02-05T11:47:08.454Z,3.00
2023-02-05T11:49:22.176Z,3.01
2023-02-05T11:51:36.053Z,3.06
2023-02-05T11:53:45.673Z,3.08
2023-02-05T11:55:55.306Z,3.03
2023-02-05T11:58:03.676Z,2.97
2023-02-05T12:00:09.279Z,3.02
2023-02-05T12:02:29.099Z,2.98
2023-02-05T12:04:44.523Z,2.96
2023-02-05T12:07:15.620Z,3.03
2023-02-05T12:09:23.650Z,3.03
2023-02-05T12:12:04.315Z,3.08
2023-02-05T12:14:19.249Z,3.13
2023-02-05T12:16:33.112Z,3.21
2023-02-05T12:18:56.340Z,3.16
2023-02-05T12:21:14.484Z,3.24
2023-02-05T12:23:27.814Z,3.22
2023-02-05T12:25:47.700Z,3.27
2023-02-05T12:28:33.813Z,3.26
2023-02-05T12:31:00.288Z,3.34
2023-02-05T12:33:49.109Z,3.22
2023-02-05T12:36:13.179Z,3.22
2023-02-05T12:38:31.988Z,3.19
2023-02-05T12:40:42.713Z,3.28
2023-02-05T12:43:23.748Z,3.24
2023-02-05T12:45:49.141Z,3.22
2023-02-05T12:48:06.269Z,3.22
2023-02-05T12:50:40.079Z,3.30
2023-02-05T12:52:53.029Z,3.32
2023-02-05T12:55:01.036Z,3.45
2023-02-05T12:57:12.078Z,3.52
2023-02-05T12:59:33.948Z,3.47
2023-02-05T13:01:42.550Z,3.57
2023-02-05T13:03:55.346Z,3.51
2023-02-05T13:06:06.829Z,3.60
2023-02-05T13:08:19.658Z,3.61
2023-02-05T13:10:25.539Z,3.53
2023-02-05T13:12:34.491Z,3.41
2023-02-05T13:15:13.746Z,3.55
2023-02-05T13:17:26.670Z,3.53
2023-02-05T13:19:34.183Z,3.57
2023-02-05T13:21:55.571Z,3.53
2023-02-05T13:24:31.730Z,3.44
2023-02-05T13:27:04.022Z,3.41
2023-02-05T13:29:12.690Z,3.46
2023-02-05T13:31:17.884Z,3.58
2023-02-05T13:33:20.601Z,3.65
2023-02-05T13:35:24.086Z,3.66
2023-02-05T13:37:47.922Z,3.60
2023-02-05T13:40:00.534Z,3.54
2023-02-05T13:42:40.036Z,3.39
2023-02-05T13:45:03.572Z,3.50
2023-02-05T13:47:40.704Z,3.35
2023-02-05T13:50:24.956Z,3.20
2023-02-05T13:52:41.840Z,3.25
2023-02-05T13:55:20.620Z,3.08
2023-02-05T13:57:57.119Z,2.94
2023-02-05T14:00:01.111Z,2.91
2023-02-05T14:02:04.264Z,2.90
2023-02-05T14:04:22.475Z,2.93
2023-02-05T14:06:28.785Z,3.02
2023-02-05T14:08:38.140Z,3.12
2023-02-05T14:10:45.253Z,3.16
2023-02-05T14:12:47.344Z,3.20
2023-02-05T14:15:17.403Z,3.17
2023-02-05T14:17:28.290Z,3.19
2023-02-05T14:19:33.024Z,3.25
2023-02-05T14:21:34.934Z,3.30
2023-02-05T14:23:49.242Z,3.19
2023-02-05T14:26:03.802Z,3.11
2023-02-05T14:28:08.799Z,3.03
2023-02-05T14:30:29.791Z,2.97
2023-02-05T14:32:31.829Z,2.99
2023-02-05T14:34:33.786Z,3.04
2023-02-05T14:36:38.594Z,3.10
2023-02-05T14:38:45.436Z,3.08
2023-02-05T14:41:06.938Z,3.03
2023-02-05T14:43:21.835Z,2.93
2023-02-05T14:45:27.920Z,2.95
2023-02-05T14:47:35.949Z,2.82
2023-02-05T14:49:43.568Z,2.82
2023-02-05T14:51:59.369Z,2.74
2023-02-05T14:54:23.509Z,2.79
2023-02-05T14:56:34.394Z,2.78
2023-02-05T14:58:41.100Z,2.72
2023-02-05T15:00:44.415Z,2.73
2023-02-05T15:03:08.017Z,2.78
2023-02-05T15:05:19.447Z,2.78
2023-02-05T15:07:27.102Z,2.68
2023-02-05T15:09:44.310Z,2.74
2023-02-05T15:12:22.478Z,2.68
2023-02-05T15:14:35.604Z,2.65
2023-02-05T15:16:38.431Z,2.65
2023-02-05T15:19:01.256Z,2.55
2023-02-05T15:21:05.298Z,2.55
2023-02-05T15:23:21.779Z,2.47
2023-02-05T15:25:53.167Z,2.43
2023-02-05T15:28:31.026Z,2.39
2023-02-05T15:31:18.461Z,2.42
2023-02-05T15:33:33.367Z,2.31
2023-02-05T15:35:37.807Z,2.37
2023-02-05T15:37:49.253Z,2.40
2023-02-05T15:39:57.156Z,2.36
2023-02-05T15:42:01.562Z,2.31
2023-02-05T15:44:04.549Z,2.27
2023-02-05T15:46:08.396Z,2.28
2023-02-05T15:48:10.846Z,2.26
2023-02-05T15:50:15.141Z,2.24
2023-02-05T15:52:24.919Z,2.22
2023-02-05T15:54:27.569Z,2.10
2023-02-05T15:56:42.414Z,2.06
2023-02-05T15:59:02.746Z,1.95
2023-02-05T16:01:05.059Z,2.02
2023-02-05T16:03:23.573Z,2.09
2023-02-05T16:05:27.309Z,1.96
2023-02-05T16:07:36.224Z,2.02
2023-02-05T16:09:45.762Z,2.04
2023-02-05T16:11:48.871Z,2.08
2023-02-05T16:14:03.021Z,2.07
2023-02-05T16:16:10.534Z,2.02
2023-02-05T16:18:32.197Z,2.02
2023-02-05T16:20:38.055Z,1.99
2023-02-05T16:22:49.600Z,1.95
2023-02-05T16:24:58.069Z,1.95
2023-02-05T16:27:15.455Z,1.94
2023-02-05T16:29:47.069Z,1.85
2023-02-05T16:31:58.115Z,1.93
2023-02-05T16:34:00.276Z,1.91
2023-02-05T16:36:09.702Z,1.87
2023-02-05T16:38:17.223Z,1.89
2023-02-05T16:40:43.220Z,1.90
2023-02-05T16:42:46.429Z,1.94
2023-02-05T16:44:49.701Z,1.91
2023-02-05T16:47:11.752Z,1.79
2023-02-05T16:49:26.150Z,1.68
2023-02-05T16:51:35.922Z,1.67
2023-02-05T16:53:38.206Z,1.64
2023-02-05T16:55:43.019Z,1.58
2023-02-05T16:57:47.643Z,1.56
2023-02-05T17:00:00.054Z,1.46
2023-02-05T17:02:03.628Z,1.47
2023-02-05T17:04:06.589Z,1.43
2023-02-05T17:06:14.270Z,1.33
2023-02-05T17:08:16.853Z,1.32
2023-02-05T17:10:22.101Z,1.37
2023-02-05T17:12:37.598Z,1.39
2023-02-05T17:14:39.738Z,1.33
2023-02-05T17:16:43.008Z,1.30
2023-02-05T17:18:57.779Z,1.23
2023-02-05T17:21:22.200Z,1.26
2023-02-05T17:23:24.526Z,1.23
2023-02-05T17:25:28.424Z,1.16
2023-02-05T17:27:37.809Z,1.17
2023-02-05T17:29:40.325Z,1.12
2023-02-05T17:31:43.190Z,1.16
2023-02-05T17:33:50.858Z,1.15
2023-02-05T17:35:52.992Z,1.16
2023-02-05T17:37:55.020Z,1.08
2023-02-05T17:39:58.051Z,1.20
2023-02-05T17:42:07.770Z,1.21
2023-02-05T17:44:12.823Z,1.15
2023-02-05T17:46:15.259Z,1.09
2023-02-05T17:48:18.248Z,1.19
2023-02-05T17:50:20.481Z,1.09
2023-02-05T17:52:22.678Z,1.09
2023-02-05T17:54:26.363Z,1.04
2023-02-05T17:56:28.564Z,1.07
2023-02-05T17:58:30.868Z,1.06
2023-02-05T18:00:33.534Z,1.04
2023-02-05T18:02:35.944Z,0.97
2023-02-05T18:04:38.425Z,0.84
2023-02-05T18:06:42.845Z,0.88
2023-02-05T18:08:44.870Z,0.94
2023-02-05T18:10:46.776Z,0.93
2023-02-05T18:12:48.851Z,0.85
2023-02-05T18:14:50.993Z,0.82
2023-02-05T18:16:53.231Z,0.83
2023-02-05T18:18:55.417Z,0.71
2023-02-05T18:21:01.511Z,0.60
2023-02-05T18:23:03.928Z,0.58
2023-02-05T18:25:06.604Z,0.71
2023-02-05T18:27:09.080Z,0.65
2023-02-05T18:29:11.088Z,0.61
2023-02-05T18:31:14.668Z,0.59
2023-02-05T18:33:16.856Z,0.57
2023-02-05T18:35:18.883Z,0.48
2023-02-05T18:37:20.804Z,0.50
2023-02-05T18:39:23.438Z,0.43
2023-02-05T18:41:28.760Z,0.40
2023-02-05T18:43:30.794Z,0.36
2023-02-05T18:45:33.112Z,0.42
2023-02-05T18:47:35.328Z,0.53
2023-02-05T18:49:37.755Z,0.50
2023-02-05T18:51:39.893Z,0.49
2023-02-05T18:53:43.337Z,0.50
2023-02-05T18:55:45.482Z,0.50
2023-02-05T18:57:47.521Z,0.57
2023-02-05T18:59:49.789Z,0.45
2023-02-05T19:01:52.935Z,0.49
2023-02-05T19:03:55.890Z,0.38
2023-02-05T19:06:04.058Z,0.39
2023-02-05T19:08:06.629Z,0.47
2023-02-05T19:10:08.818Z,0.52
2023-02-05T19:12:13.424Z,0.46
2023-02-05T19:14:18.467Z,0.40
2023-02-05T19:16:20.652Z,0.35
2023-02-05T19:18:25.297Z,0.37
2023-02-05T19:20:27.401Z,0.42
2023-02-05T19:22:29.686Z,0.51
2023-02-05T19:24:31.914Z,0.45
2023-02-05T19:26:36.061Z,0.53
2023-02-05T19:28:38.080Z,0.53
2023-02-05T19:30:41.956Z,0.52
2023-02-05T19:32:44.624Z,0.43
2023-02-05T19:34:47.081Z,0.37
2023-02-05T19:36:49.802Z,0.39
2023-02-05T19:38:51.937Z,0.41
2023-02-05T19:40:54.176Z,0.37
2023-02-05T19:42:56.898Z,0.51
2023-02-05T19:44:59.193Z,0.47
2023-02-05T19:47:01.228Z,0.38
2023-02-05T19:49:11.722Z,0.35
2023-02-05T19:51:14.956Z,0.40
2023-02-05T19:53:18.634Z,0.31
2023-02-05T19:55:20.545Z,0.34
2023-02-05T19:57:23.013Z,0.33
2023-02-05T19:59:26.902Z,0.31
2023-02-05T20:01:31.801Z,0.34
2023-02-05T20:03:34.010Z,0.36
2023-02-05T20:05:37.190Z,0.33
2023-02-05T20:07:39.366Z,0.37
2023-02-05T20:09:41.600Z,0.35
2023-02-05T20:11:46.847Z,0.29
2023-02-05T20:13:49.377Z,0.28
2023-02-05T20:15:51.609Z,0.20
2023-02-05T20:17:53.896Z,0.13
2023-02-05T20:20:10.136Z,0.17
2023-02-05T20:22:14.568Z,0.04
2023-02-05T20:24:16.837Z,0.05
2023-02-05T20:26:22.132Z,0.09
2023-02-05T20:28:27.330Z,0.07
2023-02-05T20:30:48.185Z,0.02
2023-02-05T20:36:47.588Z,0.06
2023-02-05T20:38:49.492Z,0.12
2023-02-05T20:40:51.347Z,0.09
2023-02-05T20:42:53.559Z,0.14
2023-02-05T20:44:55.743Z,0.14
2023-02-05T20:46:57.885Z,0.19
2023-02-05T20:49:00.911Z,0.27
2023-02-05T20:51:11.507Z,0.24
2023-02-05T20:53:14.227Z,0.25
2023-02-05T20:55:16.751Z,0.27
2023-02-05T20:57:20.468Z,0.24
2023-02-05T20:59:23.033Z,0.15
2023-02-05T21:01:26.900Z,0.15
2023-02-05T21:03:29.233Z,0.16
2023-02-05T21:05:32.121Z,0.23
2023-02-05T21:07:36.138Z,0.15
2023-02-05T21:09:38.119Z,0.17
2023-02-05T21:11:40.178Z,0.20
2023-02-05T21:13:43.687Z,0.26
2023-02-05T21:15:57.168Z,0.11
2023-02-05T21:17:59.249Z,0.14
2023-02-05T21:20:03.375Z,0.06
2023-02-05T21:22:06.011Z,0.02
2023-02-05T21:24:12.890Z,-0.06
2023-02-05T21:26:21.204Z,-0.06
2023-02-05T21:28:23.922Z,0.01
2023-02-05T21:30:26.208Z,0.02
2023-02-05T21:32:28.530Z,-0.02
2023-02-05T21:34:30.961Z,-0.13
2023-02-05T21:36:34.188Z,-0.14
2023-02-05T21:38:37.788Z,-0.27
2023-02-05T21:40:39.895Z,-0.37
2023-02-05T21:42:42.156Z,-0.30
2023-02-05T21:44:49.358Z,-0.32
2023-02-05T21:46:54.028Z,-0.32
2023-02-05T21:48:57.744Z,-0.29
2023-02-05T21:51:00.367Z,-0.43
2023-02-05T21:53:02.459Z,-0.42
2023-02-05T21:55:04.833Z,-0.42
2023-02-05T21:57:08.517Z,-0.54
2023-02-05T21:59:12.446Z,-0.45
2023-02-05T22:01:29.362Z,-0.53
2023-02-05T22:03:32.192Z,-0.54
2023-02-05T22:05:34.845Z,-0.59
2023-02-05T22:07:37.349Z,-0.59
2023-02-05T22:09:39.559Z,-0.56
2023-02-05T22:11:42.432Z,-0.60
2023-02-05T22:13:47.951Z,-0.55
2023-02-05T22:15:50.017Z,-0.54
2023-02-05T22:17:51.922Z,-0.56
2023-02-05T22:19:54.408Z,-0.54
2023-02-05T22:21:56.402Z,-0.56
2023-02-05T22:24:00.802Z,-0.54
2023-02-05T22:26:03.217Z,-0.54
2023-02-05T22:28:05.707Z,-0.46
2023-02-05T22:30:08.557Z,-0.46
2023-02-05T22:32:11.501Z,-0.43
2023-02-05T22:34:13.910Z,-0.48
2023-02-05T22:36:18.111Z,-0.46
2023-02-05T22:38:20.351Z,-0.55
2023-02-05T22:40:22.499Z,-0.56
2023-02-05T22:42:25.016Z,-0.50
2023-02-05T22:44:27.175Z,-0.44
2023-02-05T22:46:34.125Z,-0.38
2023-02-05T22:48:37.999Z,-0.26
2023-02-05T22:50:41.679Z,-0.28
2023-02-05T22:52:44.188Z,-0.33
2023-02-05T22:54:46.129Z,-0.26
2023-02-05T22:56:48.235Z,-0.25
2023-02-05T22:58:51.729Z,-0.29
2023-02-05T23:00:53.987Z,-0.25
2023-02-05T23:03:00.032Z,-0.25
2023-02-05T23:05:02.072Z,-0.19
2023-02-05T23:07:04.413Z,-0.11
2023-02-05T23:09:09.375Z,-0.06
2023-02-05T23:11:13.748Z,-0.07
2023-02-05T23:13:16.267Z,-0.02
2023-02-05T23:15:18.381Z,0.05
2023-02-05T23:17:20.434Z,-0.03
2023-02-05T23:19:22.769Z,0.03
2023-02-05T23:21:28.966Z,-0.05
2023-02-05T23:23:31.011Z,-0.06
2023-02-05T23:25:36.876Z,-0.09
2023-02-05T23:27:41.181Z,-0.11
2023-02-05T23:29:43.356Z,-0.07
2023-02-05T23:31:45.595Z,-0.14
2023-02-05T23:33:47.932Z,-0.12
2023-02-05T23:35:49.959Z,-0.04
2023-02-05T23:37:51.907Z,-0.13
2023-02-05T23:39:53.823Z,-0.06
2023-02-05T23:41:55.809Z,-0.12
2023-02-05T23:43:57.784Z,-0.08
2023-02-05T23:46:00.320Z,-0.14
2023-02-05T23:48:03.002Z,-0.20
2023-02-05T23:50:05.647Z,-0.12
2023-02-05T23:52:07.651Z,-0.12
2023-02-05T23:54:11.516Z,-0.12
2023-02-05T23:56:13.581Z,-0.13
2023-02-05T23:58:16.191Z,-0.10
